Time;durP1;ratioP1;P1;durP2;ratioP2;P2;SDS_P1;SDS_P2;PMS_P1;PMS_P2;Temp;Humidity;BMP_temperature;BMP_pressure;BME280_temperature;BME280_humidity;BME280_pressure;Samples;Min_cycle;Max_cycle;Signal;HPM_P1;HPM_P2
2022/01/14 00:00:36;;;;;;;6.00;5.18;;;28.00;99.90;;;;;;4971298;28;20034;-77
2022/01/14 00:03:04;;;;;;;6.30;4.65;;;28.20;99.90;;;;;;4958934;28;20264;-76
2022/01/14 00:05:31;;;;;;;6.50;5.78;;;28.70;99.90;;;;;;4954905;28;20115;-77
2022/01/14 00:07:58;;;;;;;10.05;5.65;;;29.00;99.90;;;;;;4956052;28;20442;-77
2022/01/14 00:10:29;;;;;;;6.90;5.72;;;29.50;99.90;;;;;;4962255;28;20027;-77
2022/01/14 00:13:06;;;;;;;7.57;6.05;;;29.80;99.90;;;;;;4953469;28;20039;-75
2022/01/14 00:15:35;;;;;;;7.72;5.20;;;29.70;99.40;;;;;;4974829;28;20069;-75
2022/01/14 00:18:03;;;;;;;6.28;5.35;;;29.80;99.00;;;;;;4970023;28;20393;-77
2022/01/14 00:20:33;;;;;;;5.75;5.15;;;29.80;98.80;;;;;;4968190;28;20427;-77
2022/01/14 00:23:03;;;;;;;6.95;5.55;;;29.70;99.20;;;;;;4950936;28;20054;-76
2022/01/14 00:33:53;;;;;;;9.85;5.72;;;29.80;97.80;;;;;;4962721;28;20104;-77
2022/01/14 00:36:21;;;;;;;7.18;5.50;;;29.60;99.40;;;;;;4967763;28;20386;-75
2022/01/14 00:38:50;;;;;;;8.48;5.72;;;29.40;98.90;;;;;;4983471;28;20027;-76
2022/01/14 00:41:17;;;;;;;7.47;5.28;;;29.30;98.70;;;;;;4982837;28;20049;-76
2022/01/14 00:43:46;;;;;;;5.03;4.53;;;29.20;99.00;;;;;;4970753;28;20638;-77
2022/01/14 00:46:29;;;;;;;;;;;29.30;98.60;;;;;;4971305;28;20027;-77
2022/01/14 00:48:57;;;;;;;5.68;5.13;;;29.40;98.40;;;;;;4967454;28;20372;-77
2022/01/14 00:51:24;;;;;;;5.65;5.03;;;29.40;98.00;;;;;;4974363;28;20035;-79
2022/01/14 00:53:51;;;;;;;7.00;5.10;;;29.30;99.30;;;;;;4972357;28;20043;-77
2022/01/14 00:56:33;;;;;;;7.70;5.55;;;29.40;98.10;;;;;;4973909;28;20022;-78
2022/01/14 00:59:16;;;;;;;7.22;4.88;;;29.50;98.80;;;;;;4960762;28;20027;-76
2022/01/14 01:01:59;;;;;;;5.82;5.22;;;30.00;98.50;;;;;;4963093;28;20060;-79
2022/01/14 01:04:33;;;;;;;6.20;5.35;;;30.40;97.30;;;;;;4968141;28;20042;-76
2022/01/14 01:07:03;;;;;;;6.73;5.73;;;30.60;97.60;;;;;;4962694;28;20390;-78
2022/01/14 01:09:31;;;;;;;6.43;5.45;;;30.70;96.90;;;;;;4968907;28;20065;-76
2022/01/14 01:12:13;;;;;;;7.78;5.57;;;31.10;96.60;;;;;;4966340;28;20050;-76
2022/01/14 01:15:03;;;;;;;8.45;6.15;;;31.30;96.50;;;;;;4964445;28;20014;-77
2022/01/14 01:17:33;;;;;;;6.28;5.35;;;31.40;96.30;;;;;;4967617;28;20066;-76
2022/01/14 01:20:09;;;;;;;9.27;6.22;;;31.60;96.90;;;;;;4959595;28;20090;-79
2022/01/14 01:22:36;;;;;;;9.13;5.32;;;31.70;96.30;;;;;;4966631;28;20617;-77
2022/01/14 01:25:09;;;;;;;8.93;6.22;;;31.50;96.70;;;;;;4966731;28;20334;-77
2022/01/14 01:27:42;;;;;;;6.80;5.70;;;31.00;95.70;;;;;;4965651;28;20054;-76
2022/01/14 01:30:37;;;;;;;9.63;5.43;;;30.90;96.60;;;;;;4967062;28;20024;-78
2022/01/14 01:33:06;;;;;;;8.30;6.07;;;30.70;95.90;;;;;;4978181;28;20050;-78
2022/01/14 01:35:35;;;;;;;6.40;5.43;;;30.70;96.50;;;;;;4961931;28;20083;-78
2022/01/14 01:38:02;;;;;;;12.23;6.45;;;30.60;96.80;;;;;;4966780;28;20022;-79
2022/01/14 01:40:32;;;;;;;6.50;5.40;;;30.70;97.50;;;;;;4967086;28;20034;-78
2022/01/14 01:43:06;;;;;;;9.98;5.57;;;30.90;97.10;;;;;;4963507;28;20042;-77
2022/01/14 01:45:38;;;;;;;8.55;5.95;;;31.00;96.70;;;;;;4968293;28;20031;-78
2022/01/14 01:48:11;;;;;;;7.13;5.13;;;31.10;96.10;;;;;;4968695;28;20027;-77
2022/01/14 01:50:39;;;;;;;7.47;5.70;;;31.30;96.50;;;;;;4970089;28;20030;-79
2022/01/14 01:53:06;;;;;;;6.85;5.30;;;31.50;96.00;;;;;;4962867;28;20414;-78
2022/01/14 01:55:36;;;;;;;7.22;5.35;;;31.90;95.20;;;;;;4967754;28;20074;-78
2022/01/14 01:58:04;;;;;;;7.22;4.68;;;31.80;95.10;;;;;;4968727;28;20126;-79
2022/01/14 02:00:39;;;;;;;8.73;6.00;;;31.90;95.10;;;;;;4971069;28;20036;-79
2022/01/14 02:03:09;;;;;;;6.70;5.22;;;32.20;95.50;;;;;;4968401;28;20042;-76
2022/01/14 02:05:37;;;;;;;6.93;5.00;;;32.40;94.90;;;;;;4974387;28;20114;-79
2022/01/14 02:08:06;;;;;;;5.80;4.80;;;32.80;94.60;;;;;;4973235;28;20026;-77
2022/01/14 02:10:36;;;;;;;6.30;4.38;;;32.80;93.30;;;;;;4970964;28;20115;-77
2022/01/14 02:13:04;;;;;;;4.50;3.92;;;32.50;94.20;;;;;;4967039;28;20049;-75
2022/01/14 02:23:33;;;;;;;5.75;4.15;;;32.50;94.30;;;;;;4965880;28;20485;-79
2022/01/14 02:26:01;;;;;;;4.22;3.75;;;32.40;95.00;;;;;;4968214;28;20062;-76
2022/01/14 02:28:30;;;;;;;5.30;3.88;;;32.30;93.60;;;;;;4970037;28;20026;-82
2022/01/14 02:30:58;;;;;;;4.90;3.38;;;32.40;93.20;;;;;;4965281;28;20023;-80
2022/01/14 02:33:26;;;;;;;4.63;3.58;;;32.40;93.10;;;;;;4978220;28;20035;-79
2022/01/14 02:35:55;;;;;;;6.80;3.88;;;32.70;93.30;;;;;;4965187;28;20121;-79
2022/01/14 02:38:22;;;;;;;4.03;3.38;;;32.90;92.40;;;;;;4963220;28;20023;-75
2022/01/14 02:40:50;;;;;;;3.83;3.30;;;33.00;93.60;;;;;;4966231;28;20027;-79
2022/01/14 02:43:18;;;;;;;4.93;3.53;;;32.60;92.00;;;;;;4963750;28;20103;-79
2022/01/14 02:45:51;;;;;;;4.80;3.88;;;32.40;92.60;;;;;;4965760;28;20119;-77
2022/01/14 02:48:21;;;;;;;8.73;4.05;;;32.10;92.70;;;;;;4972028;28;20419;-78
2022/01/14 02:51:08;;;;;;;5.05;4.00;;;31.90;93.50;;;;;;4965451;28;20053;-79
2022/01/14 02:56:07;;;;;;;5.60;4.15;;;31.70;93.90;;;;;;4966884;28;20023;-78
2022/01/14 02:58:37;;;;;;;5.47;4.82;;;31.70;93.40;;;;;;4965433;28;20034;-79
2022/01/14 03:01:10;;;;;;;5.55;4.63;;;31.80;94.00;;;;;;4963831;28;20038;-76
2022/01/14 03:03:38;;;;;;;6.40;4.32;;;32.40;93.60;;;;;;4962636;28;20023;-77
2022/01/14 03:06:06;;;;;;;6.72;3.30;;;32.80;93.00;;;;;;4966439;28;20030;-79
2022/01/14 03:08:35;;;;;;;8.55;4.88;;;33.00;92.50;;;;;;4963902;28;20474;-76
2022/01/14 03:11:10;;;;;;;5.30;4.18;;;33.20;92.10;;;;;;4962225;28;20049;-78
2022/01/14 03:13:39;;;;;;;5.05;4.30;;;33.30;92.50;;;;;;4961286;28;20027;-78
2022/01/14 03:16:08;;;;;;;5.93;3.85;;;33.40;91.30;;;;;;4963803;28;20065;-77
2022/01/14 03:18:45;;;;;;;7.53;4.05;;;33.10;92.30;;;;;;4957123;28;20042;-74
2022/01/14 03:21:16;;;;;;;6.97;4.68;;;32.80;92.30;;;;;;4961582;28;20026;-75
2022/01/14 03:23:52;;;;;;;6.47;4.55;;;32.80;92.50;;;;;;4957925;28;20055;-77
2022/01/14 03:26:21;;;;;;;5.80;4.88;;;33.00;93.30;;;;;;4967180;28;20035;-77
2022/01/14 03:28:49;;;;;;;6.55;4.60;;;33.50;92.50;;;;;;4963422;28;20141;-76
2022/01/14 03:31:17;;;;;;;7.05;4.78;;;33.60;92.10;;;;;;4963728;28;20042;-77
2022/01/14 03:33:44;;;;;;;6.15;4.15;;;33.00;92.30;;;;;;4964198;28;20121;-77
2022/01/14 03:36:12;;;;;;;5.50;4.35;;;32.30;92.50;;;;;;4968002;28;20548;-77
2022/01/14 03:38:40;;;;;;;7.05;3.70;;;31.90;92.60;;;;;;4965338;28;20394;-75
2022/01/14 03:41:07;;;;;;;5.95;4.90;;;31.50;93.40;;;;;;4961070;28;20034;-76
2022/01/14 03:43:36;;;;;;;6.03;4.07;;;32.10;92.50;;;;;;4961879;28;20033;-75
2022/01/14 03:46:04;;;;;;;4.72;3.75;;;32.70;93.40;;;;;;4968002;28;20051;-75
2022/01/14 03:48:31;;;;;;;4.82;3.58;;;33.00;92.80;;;;;;4962075;28;20090;-76
2022/01/14 03:50:59;;;;;;;5.05;3.92;;;33.60;93.80;;;;;;4969784;28;20038;-78
2022/01/14 03:53:26;;;;;;;4.72;3.97;;;34.00;91.70;;;;;;4967032;28;20109;-79
2022/01/14 03:55:54;;;;;;;4.15;3.58;;;34.60;91.60;;;;;;4967923;28;20406;-76
2022/01/14 03:58:22;;;;;;;6.05;3.92;;;34.50;91.60;;;;;;4968990;28;20102;-76
2022/01/14 04:00:49;;;;;;;6.43;4.32;;;34.30;91.40;;;;;;4963945;28;20051;-76
2022/01/14 04:03:17;;;;;;;4.28;3.50;;;34.10;91.60;;;;;;4964531;28;20115;-78
2022/01/14 04:05:44;;;;;;;3.60;3.10;;;33.90;91.50;;;;;;4967358;28;20041;-74
2022/01/14 04:08:11;;;;;;;3.97;2.95;;;33.80;91.20;;;;;;4967246;28;20031;-78
2022/01/14 04:10:39;;;;;;;6.50;4.15;;;33.70;90.50;;;;;;4967645;28;20106;-74
2022/01/14 04:13:14;;;;;;;5.13;3.88;;;33.60;91.70;;;;;;4958445;28;20030;-75
2022/01/14 04:15:47;;;;;;;5.80;3.70;;;33.60;91.60;;;;;;4968684;28;20034;-75
2022/01/14 04:18:20;;;;;;;6.40;4.38;;;33.70;91.50;;;;;;4964803;28;20039;-73
2022/01/14 04:20:49;;;;;;;5.18;4.25;;;33.20;91.40;;;;;;4970553;28;20102;-75
2022/01/14 04:23:19;;;;;;;4.78;3.45;;;32.80;92.10;;;;;;4967307;28;20051;-75
2022/01/14 04:25:53;;;;;;;5.93;4.07;;;32.30;92.20;;;;;;4964599;28;20023;-78
2022/01/14 04:28:30;;;;;;;5.80;3.77;;;32.10;93.50;;;;;;4965526;28;20085;-73
2022/01/14 04:30:58;;;;;;;5.53;3.70;;;32.30;93.00;;;;;;4971597;28;20133;-75
2022/01/14 04:33:29;;;;;;;4.50;3.90;;;32.20;93.40;;;;;;4971801;28;20463;-75
2022/01/14 04:36:01;;;;;;;6.28;4.07;;;32.00;93.20;;;;;;4972320;28;20182;-74
2022/01/14 04:38:30;;;;;;;6.05;3.58;;;31.80;93.40;;;;;;4968689;28;20030;-77
2022/01/14 04:40:58;;;;;;;6.07;3.63;;;31.60;93.40;;;;;;4968181;28;20027;-73
2022/01/14 04:43:26;;;;;;;5.50;3.92;;;31.30;93.60;;;;;;4965849;28;20019;-76
2022/01/14 04:48:24;;;;;;;5.38;3.92;;;30.90;93.80;;;;;;4969641;28;20363;-72
2022/01/14 04:50:52;;;;;;;4.22;3.17;;;30.80;94.10;;;;;;4969099;28;20022;-72
2022/01/14 04:53:21;;;;;;;5.75;3.45;;;30.80;93.70;;;;;;4966840;28;20035;-74
2022/01/14 04:55:50;;;;;;;4.90;3.85;;;30.70;93.90;;;;;;4968112;28;20034;-75
2022/01/14 04:58:18;;;;;;;6.13;3.70;;;30.60;94.30;;;;;;4969072;28;20521;-75
2022/01/14 05:00:45;;;;;;;4.57;3.70;;;30.60;94.70;;;;;;4965376;28;20455;-75
2022/01/14 05:03:13;;;;;;;7.10;3.63;;;30.60;94.80;;;;;;4995983;28;20034;-77
2022/01/14 05:05:43;;;;;;;5.00;4.10;;;30.70;94.40;;;;;;4973654;28;20026;-79
2022/01/14 05:08:18;;;;;;;5.53;3.80;;;30.70;94.10;;;;;;4981186;28;20505;-79
2022/01/14 05:11:03;;;;;;;5.50;3.58;;;30.50;94.20;;;;;;4968028;28;20038;-79
2022/01/14 05:13:30;;;;;;;5.55;3.55;;;30.40;94.80;;;;;;4966981;28;20081;-77
2022/01/14 05:15:58;;;;;;;5.32;3.88;;;30.30;95.20;;;;;;4972999;28;20026;-74
2022/01/14 05:18:26;;;;;;;5.68;4.30;;;30.30;95.70;;;;;;4974291;28;20580;-75
2022/01/14 05:20:53;;;;;;;5.63;3.58;;;30.40;95.50;;;;;;4971496;28;20249;-78
2022/01/14 05:23:21;;;;;;;5.45;4.20;;;30.40;95.20;;;;;;4969603;28;20058;-80
2022/01/14 05:25:48;;;;;;;4.85;3.78;;;30.30;95.60;;;;;;4970286;28;20106;-77
2022/01/14 05:28:16;;;;;;;9.07;3.80;;;30.40;95.40;;;;;;4967206;28;20030;-74
2022/01/14 05:30:43;;;;;;;7.10;4.00;;;30.50;95.40;;;;;;4969245;28;20042;-79
2022/01/14 05:33:11;;;;;;;6.72;4.22;;;30.50;95.00;;;;;;4966876;28;20386;-81
2022/01/14 05:35:38;;;;;;;6.95;3.92;;;30.60;95.20;;;;;;4961648;28;20113;-81
2022/01/14 05:38:05;;;;;;;4.43;3.80;;;30.50;94.70;;;;;;4965029;28;20027;-79
2022/01/14 05:40:33;;;;;;;5.40;3.75;;;30.50;94.90;;;;;;4968201;28;20496;-79
2022/01/14 05:43:02;;;;;;;5.93;4.05;;;30.50;95.40;;;;;;4969159;28;20081;-75
2022/01/14 05:45:29;;;;;;;6.45;4.50;;;30.50;96.20;;;;;;4966191;28;20030;-75
2022/01/14 05:47:57;;;;;;;5.57;3.80;;;30.50;95.90;;;;;;4976607;28;20500;-76
2022/01/14 05:50:26;;;;;;;3.92;3.28;;;30.50;96.00;;;;;;4970312;28;20022;-78
2022/01/14 05:52:54;;;;;;;4.15;3.10;;;30.50;96.40;;;;;;4979343;28;20463;-74
2022/01/14 05:55:22;;;;;;;4.47;2.28;;;30.60;96.60;;;;;;4971768;28;20030;-74
2022/01/14 05:57:50;;;;;;;5.28;2.47;;;30.60;97.00;;;;;;4971719;28;20713;-75
2022/01/14 06:00:21;;;;;;;2.58;1.33;;;30.40;98.10;;;;;;4970027;28;20569;-76
2022/01/14 06:02:49;;;;;;;2.85;1.58;;;30.10;98.40;;;;;;4970369;28;20109;-77
2022/01/14 06:05:17;;;;;;;6.43;2.70;;;29.80;99.20;;;;;;4968353;28;20521;-81
2022/01/14 06:07:44;;;;;;;6.47;1.92;;;29.60;99.30;;;;;;4980418;28;20111;-79
2022/01/14 06:10:12;;;;;;;2.30;1.30;;;29.70;99.70;;;;;;4975103;28;20026;-77
2022/01/14 06:12:40;;;;;;;3.53;1.08;;;29.80;99.40;;;;;;4982552;28;20069;-81
2022/01/14 06:15:07;;;;;;;4.75;1.42;;;29.90;99.00;;;;;;4975444;28;20410;-78
2022/01/14 06:17:35;;;;;;;3.88;1.70;;;29.90;99.20;;;;;;4984173;28;20035;-76
2022/01/14 06:20:04;;;;;;;3.75;0.98;;;30.00;98.80;;;;;;4976320;28;20022;-77
2022/01/14 06:22:31;;;;;;;5.15;1.25;;;30.10;98.60;;;;;;4988381;28;20482;-79
2022/01/14 06:25:00;;;;;;;3.80;1.20;;;30.50;98.30;;;;;;4962894;28;20202;-79
2022/01/14 06:27:27;;;;;;;2.67;1.20;;;30.50;97.90;;;;;;4990299;28;20109;-77
2022/01/14 06:29:55;;;;;;;4.13;1.15;;;30.60;97.40;;;;;;4972976;28;20031;-78
2022/01/14 06:32:22;;;;;;;5.47;1.50;;;30.50;97.80;;;;;;4972825;28;20045;-79
2022/01/14 06:34:49;;;;;;;7.07;1.52;;;30.50;97.90;;;;;;4970259;28;20031;-78
2022/01/14 06:37:17;;;;;;;3.33;1.40;;;30.40;97.90;;;;;;4981759;28;20430;-77
2022/01/14 06:39:44;;;;;;;4.03;1.10;;;30.20;98.30;;;;;;4978281;28;20026;-76
2022/01/14 06:42:12;;;;;;;3.35;1.38;;;30.10;98.30;;;;;;4982748;28;20036;-78
2022/01/14 06:44:39;;;;;;;3.72;1.25;;;29.90;98.40;;;;;;4975764;28;20508;-79
2022/01/14 06:47:06;;;;;;;3.58;1.13;;;29.80;98.60;;;;;;4968604;28;20034;-81
2022/01/14 06:49:34;;;;;;;2.80;1.00;;;29.80;98.80;;;;;;4974715;28;20019;-77
2022/01/14 06:52:01;;;;;;;4.53;1.60;;;29.70;98.50;;;;;;4969017;28;20060;-74
2022/01/14 06:54:29;;;;;;;4.75;1.00;;;29.60;98.70;;;;;;4963845;28;20495;-78
2022/01/14 06:56:56;;;;;;;3.58;1.02;;;29.40;98.80;;;;;;4959352;28;20030;-78
2022/01/14 06:59:23;;;;;;;3.35;1.08;;;29.40;98.80;;;;;;4960838;28;20034;-76
2022/01/14 07:01:51;;;;;;;3.38;1.35;;;29.60;98.60;;;;;;4961428;28;20043;-78
2022/01/14 07:04:18;;;;;;;4.97;0.90;;;29.60;98.50;;;;;;4966273;28;20992;-77
2022/01/14 07:06:45;;;;;;;3.63;1.10;;;29.70;98.30;;;;;;4971342;28;20026;-78
2022/01/14 07:09:13;;;;;;;4.10;0.90;;;29.60;98.10;;;;;;4968922;28;20034;-77
2022/01/14 07:11:40;;;;;;;4.70;1.10;;;29.70;98.30;;;;;;4972267;28;20482;-76
2022/01/14 07:14:08;;;;;;;4.05;1.20;;;29.70;98.00;;;;;;4973454;28;20039;-77
2022/01/14 07:16:36;;;;;;;3.47;1.13;;;29.50;98.30;;;;;;4979401;28;20061;-76
2022/01/14 07:19:04;;;;;;;2.40;1.10;;;29.20;98.40;;;;;;4968369;28;20025;-78
2022/01/14 07:21:35;;;;;;;5.43;1.10;;;29.10;98.80;;;;;;4976961;28;20085;-78
2022/01/14 07:24:03;;;;;;;3.67;0.70;;;29.00;98.90;;;;;;4978872;28;20138;-78
2022/01/14 07:26:31;;;;;;;2.33;0.82;;;28.90;98.80;;;;;;4972986;28;20117;-79
2022/01/14 07:28:58;;;;;;;3.22;0.70;;;28.80;99.30;;;;;;4971458;28;20088;-77
2022/01/14 07:31:26;;;;;;;1.25;0.88;;;28.60;99.30;;;;;;4965661;28;20039;-78
2022/01/14 07:33:53;;;;;;;4.68;1.05;;;28.50;99.60;;;;;;4966741;28;20031;-77
2022/01/14 07:36:21;;;;;;;4.97;2.20;;;28.40;99.90;;;;;;4964149;28;20698;-78
2022/01/14 07:38:48;;;;;;;5.53;1.33;;;28.30;99.90;;;;;;4971642;28;20444;-76
2022/01/14 07:41:16;;;;;;;6.53;2.28;;;28.20;99.90;;;;;;4971148;28;20057;-76
2022/01/14 07:43:48;;;;;;;5.50;2.22;;;28.20;99.90;;;;;;4970060;28;20034;-77
2022/01/14 07:46:16;;;;;;;6.45;3.47;;;28.20;99.90;;;;;;4969230;28;20065;-76
2022/01/14 07:48:43;;;;;;;8.23;4.85;;;28.20;99.90;;;;;;4967856;28;20066;-77
2022/01/14 07:51:11;;;;;;;7.40;4.45;;;28.20;99.90;;;;;;4972328;28;20031;-78
2022/01/14 07:53:40;;;;;;;8.75;4.03;;;28.20;99.90;;;;;;4969699;28;20030;-78
2022/01/14 07:56:11;;;;;;;9.00;4.50;;;28.20;99.90;;;;;;4968368;28;20050;-77
2022/01/14 07:58:40;;;;;;;7.38;4.57;;;28.30;99.90;;;;;;4975073;28;20177;-77
2022/01/14 08:01:08;;;;;;;6.55;4.63;;;28.50;99.90;;;;;;4969842;28;20066;-77
2022/01/14 08:03:35;;;;;;;6.75;4.50;;;28.50;99.90;;;;;;4968767;28;20027;-76
2022/01/14 08:06:04;;;;;;;5.95;3.95;;;28.50;99.90;;;;;;4964361;28;20673;-77
2022/01/14 08:08:31;;;;;;;6.57;5.13;;;28.40;99.90;;;;;;4969385;28;20122;-79
2022/01/14 08:10:59;;;;;;;5.43;2.95;;;28.30;99.90;;;;;;4967153;28;20366;-78
2022/01/14 08:13:26;;;;;;;5.05;3.20;;;28.20;99.90;;;;;;4964999;28;20022;-79
2022/01/14 08:15:55;;;;;;;5.68;3.13;;;28.10;99.90;;;;;;4967464;28;20050;-77
2022/01/14 08:18:23;;;;;;;4.75;2.88;;;28.10;99.90;;;;;;4972398;28;20023;-78
2022/01/14 08:20:50;;;;;;;4.47;2.78;;;28.10;99.90;;;;;;4968641;28;20031;-77
2022/01/14 08:23:19;;;;;;;4.00;2.90;;;28.10;99.90;;;;;;4967670;28;20057;-77
2022/01/14 08:25:46;;;;;;;4.85;2.78;;;27.90;99.90;;;;;;4971444;28;20050;-77
2022/01/14 08:28:14;;;;;;;3.85;2.50;;;27.80;99.90;;;;;;4969880;28;20034;-79
2022/01/14 08:30:44;;;;;;;5.07;3.38;;;27.70;99.90;;;;;;4973398;28;20057;-78
2022/01/14 08:33:12;;;;;;;4.80;2.92;;;27.50;99.90;;;;;;4971550;28;20034;-78
2022/01/14 08:35:41;;;;;;;8.57;3.40;;;27.50;99.90;;;;;;4953069;28;20118;-77
2022/01/14 08:38:09;;;;;;;4.18;3.47;;;27.40;99.90;;;;;;4955215;28;20038;-75
2022/01/14 08:40:36;;;;;;;5.90;3.00;;;27.30;99.90;;;;;;4951054;28;20054;-77
2022/01/14 08:43:04;;;;;;;4.00;2.38;;;27.30;99.90;;;;;;4953904;28;20540;-78
2022/01/14 08:45:32;;;;;;;4.25;2.38;;;27.10;99.90;;;;;;4952567;28;20050;-79
2022/01/14 08:48:00;;;;;;;4.03;2.20;;;27.10;99.90;;;;;;4951493;28;20027;-79
2022/01/14 08:50:35;;;;;;;3.58;2.60;;;27.00;99.90;;;;;;4952952;28;20104;-78
2022/01/14 08:53:04;;;;;;;6.97;2.57;;;26.90;99.90;;;;;;4953918;28;20046;-78
2022/01/14 08:55:34;;;;;;;3.92;2.38;;;26.80;99.90;;;;;;4951646;28;20029;-78
2022/01/14 08:58:03;;;;;;;6.65;2.95;;;26.80;99.90;;;;;;4952174;28;21015;-78
2022/01/14 09:00:31;;;;;;;5.38;3.00;;;26.80;99.90;;;;;;4951641;28;20112;-78
2022/01/14 09:02:58;;;;;;;5.32;2.08;;;26.80;99.90;;;;;;4951435;28;20031;-78
2022/01/14 09:05:26;;;;;;;4.07;2.17;;;26.70;99.90;;;;;;4953057;28;20023;-78
2022/01/14 09:07:53;;;;;;;7.55;2.80;;;26.70;99.90;;;;;;4952338;28;20027;-76
2022/01/14 09:10:22;;;;;;;2.97;2.17;;;26.60;99.90;;;;;;4952360;28;20077;-76
2022/01/14 09:12:49;;;;;;;2.97;2.05;;;26.50;99.90;;;;;;4951687;28;20083;-76
2022/01/14 09:15:18;;;;;;;3.00;2.33;;;26.40;99.90;;;;;;4951226;28;20027;-78
2022/01/14 09:17:45;;;;;;;3.65;2.50;;;26.40;99.90;;;;;;4950892;28;20027;-77
2022/01/14 09:20:13;;;;;;;5.28;2.60;;;26.30;99.90;;;;;;4952379;28;20038;-77
2022/01/14 09:22:47;;;;;;;4.05;2.35;;;26.30;99.90;;;;;;4952446;28;20612;-77
2022/01/14 09:25:16;;;;;;;2.88;2.10;;;26.20;99.90;;;;;;4953272;28;20081;-76
2022/01/14 09:27:44;;;;;;;2.72;2.00;;;26.10;99.90;;;;;;4953472;28;20065;-78
2022/01/14 09:30:12;;;;;;;2.80;2.17;;;26.10;99.90;;;;;;4952763;28;20498;-76
2022/01/14 09:32:39;;;;;;;3.40;2.15;;;26.00;99.90;;;;;;4948809;28;20047;-75
2022/01/14 09:35:08;;;;;;;6.45;2.38;;;25.90;99.90;;;;;;4953185;28;20034;-79
2022/01/14 09:37:36;;;;;;;4.80;2.05;;;25.90;99.90;;;;;;4949241;28;20642;-76
2022/01/14 09:40:04;;;;;;;2.65;1.80;;;25.80;99.90;;;;;;4950937;28;20024;-76
2022/01/14 09:42:31;;;;;;;3.95;2.20;;;25.70;99.90;;;;;;4948498;28;20030;-77
2022/01/14 09:44:59;;;;;;;5.53;3.03;;;25.70;99.90;;;;;;4952376;28;20488;-76
2022/01/14 09:47:27;;;;;;;4.22;2.17;;;25.60;99.90;;;;;;4949404;28;20031;-77
2022/01/14 09:49:54;;;;;;;4.32;2.13;;;25.60;99.90;;;;;;4950148;28;20550;-77
2022/01/14 09:52:22;;;;;;;3.35;2.00;;;25.60;99.90;;;;;;4950146;28;20562;-75
2022/01/14 09:54:51;;;;;;;4.18;1.98;;;25.60;99.90;;;;;;4952716;28;20030;-78
2022/01/14 09:57:20;;;;;;;3.78;2.10;;;25.60;99.90;;;;;;4950597;28;20090;-77
2022/01/14 09:59:47;;;;;;;4.22;2.25;;;25.50;99.90;;;;;;4949186;28;20030;-78
2022/01/14 10:02:37;;;;;;;5.00;2.38;;;25.50;99.90;;;;;;4949571;28;20030;-76
2022/01/14 10:05:07;;;;;;;3.17;1.90;;;25.40;99.90;;;;;;4951253;28;20039;-80
2022/01/14 10:07:34;;;;;;;3.22;2.25;;;25.40;99.90;;;;;;4949085;28;20034;-78
2022/01/14 10:10:23;;;;;;;3.63;1.65;;;25.30;99.90;;;;;;4965568;28;20058;-76
2022/01/14 10:12:51;;;;;;;2.35;1.63;;;25.30;99.90;;;;;;4948313;28;20498;-78
2022/01/14 10:15:18;;;;;;;3.50;2.35;;;25.30;99.90;;;;;;4947611;28;20031;-76
2022/01/14 10:17:46;;;;;;;3.28;1.90;;;25.30;99.90;;;;;;4947616;28;20520;-76
2022/01/14 10:20:16;;;;;;;2.88;1.80;;;25.30;99.90;;;;;;4948816;28;20042;-76
2022/01/14 10:22:47;;;;;;;4.88;1.80;;;25.30;99.90;;;;;;4950591;28;22618;-76
2022/01/14 10:25:21;;;;;;;3.50;1.73;;;25.20;99.90;;;;;;4954904;28;20375;-76
2022/01/14 10:27:51;;;;;;;3.85;2.08;;;25.10;99.90;;;;;;4951736;28;20486;-75
2022/01/14 10:30:21;;;;;;;2.60;2.17;;;25.10;99.90;;;;;;4954344;28;20031;-75
2022/01/14 10:32:59;;;;;;;3.58;2.17;;;25.10;99.90;;;;;;4972408;28;20043;-76
2022/01/14 10:35:28;;;;;;;2.47;1.90;;;25.00;99.90;;;;;;4955003;28;20037;-77
2022/01/14 10:38:01;;;;;;;3.28;2.15;;;25.00;99.90;;;;;;4947283;28;20037;-77
2022/01/14 10:40:29;;;;;;;3.92;1.92;;;25.00;99.90;;;;;;4950274;28;20015;-75
2022/01/14 10:43:06;;;;;;;4.28;1.75;;;25.00;99.90;;;;;;4949189;28;20030;-75
2022/01/14 10:45:35;;;;;;;2.22;1.50;;;25.00;99.90;;;;;;4947398;28;20065;-75
2022/01/14 10:48:08;;;;;;;2.80;1.83;;;24.90;99.90;;;;;;4948139;28;20038;-76
2022/01/14 10:51:00;;;;;;;2.72;1.83;;;24.90;99.90;;;;;;4947495;28;20056;-75
2022/01/14 10:53:39;;;;;;;4.10;2.25;;;24.80;99.90;;;;;;4948400;28;20054;-76
2022/01/14 10:56:09;;;;;;;5.65;1.92;;;24.80;99.90;;;;;;4947520;28;20070;-76
2022/01/14 10:58:59;;;;;;;1.75;1.48;;;24.80;99.90;;;;;;4948459;28;20309;-76
2022/01/14 11:01:28;;;;;;;2.97;1.70;;;24.80;99.90;;;;;;4949937;28;20033;-76
2022/01/14 11:04:11;;;;;;;2.60;1.83;;;24.80;99.90;;;;;;4947929;28;20033;-76
2022/01/14 11:06:41;;;;;;;2.78;1.60;;;24.70;99.90;;;;;;4947251;28;20114;-75
2022/01/14 11:09:17;;;;;;;2.10;1.35;;;24.70;99.90;;;;;;4949201;28;20034;-76
2022/01/14 11:11:46;;;;;;;2.40;2.00;;;24.70;99.90;;;;;;4948376;28;20043;-76
2022/01/14 11:14:15;;;;;;;2.78;1.33;;;24.60;99.90;;;;;;4948387;28;20066;-76
2022/01/14 11:16:43;;;;;;;5.13;1.90;;;24.60;99.90;;;;;;4949596;28;20038;-77
2022/01/14 11:19:13;;;;;;;4.55;1.70;;;24.50;99.90;;;;;;4949760;28;20544;-76
2022/01/14 11:24:30;;;;;;;3.22;1.98;;;24.50;99.90;;;;;;4949675;28;20521;-74
2022/01/14 11:27:14;;;;;;;3.08;1.98;;;24.50;99.90;;;;;;4949802;28;20502;-75
2022/01/14 11:29:45;;;;;;;3.78;1.92;;;24.40;99.90;;;;;;4949822;28;20022;-76
2022/01/14 11:32:13;;;;;;;2.88;1.42;;;24.40;99.90;;;;;;4948638;28;20054;-76
2022/01/14 11:34:43;;;;;;;2.13;1.52;;;24.40;99.90;;;;;;4953882;28;20038;-78
2022/01/14 11:37:31;;;;;;;3.30;2.10;;;24.40;99.90;;;;;;4950639;28;20051;-75
2022/01/14 11:40:02;;;;;;;4.45;1.60;;;24.30;99.90;;;;;;4950914;28;20033;-76
2022/01/14 11:42:46;;;;;;;3.35;2.00;;;24.30;99.90;;;;;;4954035;28;20019;-77
2022/01/14 11:45:40;;;;;;;4.30;2.22;;;24.20;99.90;;;;;;4957904;28;20031;-77
2022/01/14 11:48:28;;;;;;;6.10;2.20;;;24.10;99.90;;;;;;4952686;28;20027;-76
2022/01/14 11:51:01;;;;;;;5.57;2.05;;;24.10;99.90;;;;;;4949823;28;20034;-73
2022/01/14 11:53:41;;;;;;;4.38;2.53;;;24.00;99.90;;;;;;4942799;28;20031;-75
2022/01/14 11:56:33;;;;;;;3.00;1.83;;;24.00;99.90;;;;;;4950575;28;20019;-75
2022/01/14 11:59:20;;;;;;;3.00;1.67;;;24.00;99.90;;;;;;4948707;28;20033;-75
2022/01/14 12:02:00;;;;;;;3.20;1.98;;;24.00;99.90;;;;;;4947550;28;20158;-74
2022/01/14 12:05:04;;;;;;;4.97;2.25;;;24.00;99.90;;;;;;4947457;28;20026;-75
2022/01/14 12:07:32;;;;;;;4.68;2.05;;;24.00;99.90;;;;;;4946916;28;20042;-76
2022/01/14 12:10:02;;;;;;;3.90;2.03;;;24.00;99.90;;;;;;4949926;28;20122;-74
2022/01/14 12:12:31;;;;;;;3.95;2.55;;;24.00;99.90;;;;;;4950964;28;20161;-77
2022/01/14 12:15:02;;;;;;;2.80;1.98;;;24.00;99.90;;;;;;4951730;28;20234;-77
2022/01/14 12:17:42;;;;;;;3.65;1.98;;;24.10;99.90;;;;;;4966849;28;20041;-78
2022/01/14 12:20:09;;;;;;;2.13;1.67;;;24.00;99.90;;;;;;4966752;28;20454;-77
2022/01/14 12:22:37;;;;;;;5.03;2.30;;;24.00;99.90;;;;;;4963507;28;20071;-74
2022/01/14 12:25:05;;;;;;;4.07;2.17;;;23.90;99.90;;;;;;4974714;28;20038;-77
2022/01/14 12:27:46;;;;;;;4.57;2.75;;;23.90;99.90;;;;;;4973239;28;20489;-77
2022/01/14 12:30:24;;;;;;;2.80;1.92;;;23.80;99.90;;;;;;4970684;28;20026;-77
2022/01/14 12:32:54;;;;;;;3.60;2.38;;;23.80;99.90;;;;;;4957909;28;20035;-75
2022/01/14 12:35:32;;;;;;;3.33;2.30;;;23.70;99.90;;;;;;4952563;28;20105;-77
2022/01/14 12:38:01;;;;;;;3.53;2.38;;;23.60;99.90;;;;;;4951110;28;20027;-76
2022/01/14 12:40:36;;;;;;;5.05;2.20;;;23.60;99.90;;;;;;4950981;28;20113;-75
2022/01/14 12:43:06;;;;;;;5.28;2.80;;;23.60;99.90;;;;;;4952345;28;20049;-77
2022/01/14 12:45:52;;;;;;;4.13;2.33;;;23.60;99.90;;;;;;4950806;28;20039;-76
2022/01/14 12:48:40;;;;;;;5.63;2.40;;;23.70;99.90;;;;;;4955950;28;20054;-76
2022/01/14 12:51:16;;;;;;;4.30;2.20;;;23.70;99.90;;;;;;4954116;28;20042;-78
2022/01/14 12:53:52;;;;;;;5.35;2.40;;;23.80;99.90;;;;;;4964234;28;20030;-76
2022/01/14 12:56:24;;;;;;;2.88;1.77;;;23.70;99.90;;;;;;4951478;28;20480;-74
2022/01/14 12:58:53;;;;;;;3.67;1.90;;;23.80;99.90;;;;;;4950940;28;20035;-77
2022/01/14 13:01:28;;;;;;;2.90;1.70;;;23.70;99.90;;;;;;4950155;28;20467;-78
2022/01/14 13:04:01;;;;;;;3.58;1.85;;;23.70;99.90;;;;;;4950435;28;20031;-77
2022/01/14 13:06:40;;;;;;;3.05;1.88;;;23.60;99.90;;;;;;4950392;28;20124;-77
2022/01/14 13:09:08;;;;;;;3.25;1.83;;;23.60;99.90;;;;;;4949896;28;20731;-78
2022/01/14 13:11:58;;;;;;;2.92;1.92;;;23.50;99.90;;;;;;4954928;28;20031;-78
2022/01/14 13:14:33;;;;;;;2.75;1.80;;;23.40;99.90;;;;;;4953496;28;20062;-78
2022/01/14 13:17:07;;;;;;;3.78;2.20;;;23.40;99.90;;;;;;4957164;28;20023;-77
2022/01/14 13:19:36;;;;;;;3.17;1.30;;;23.30;99.90;;;;;;4952070;28;20069;-78
2022/01/14 13:22:09;;;;;;;2.90;1.70;;;23.20;99.90;;;;;;4951984;28;20029;-78
2022/01/14 13:24:38;;;;;;;6.68;1.98;;;23.10;99.90;;;;;;4948307;28;20566;-78
2022/01/14 13:27:09;;;;;;;3.10;1.90;;;23.10;99.90;;;;;;4950963;28;20026;-78
2022/01/14 13:29:40;;;;;;;5.55;2.38;;;23.00;99.90;;;;;;4951031;28;20073;-78